Time;durP1;ratioP1;P1;durP2;ratioP2;P2;SDS_P1;SDS_P2;PMS_P1;PMS_P2;Temp;Humidity;BMP_temperature;BMP_pressure;BME280_temperature;BME280_humidity;BME280_pressure;Samples;Min_cycle;Max_cycle;Signal;HPM_P1;HPM_P2
2023/09/08 00:02:19;;;;;;;0.52;0.40;;;19.00;99.90;;;;;;5093516;28;20043;-82
2023/09/08 00:04:44;;;;;;;0.40;0.40;;;19.00;99.90;;;;;;5093643;28;20047;-83
2023/09/08 00:07:10;;;;;;;0.87;0.50;;;18.90;99.90;;;;;;5092431;28;20040;-82
2023/09/08 00:09:35;;;;;;;0.50;0.50;;;18.80;99.90;;;;;;5094359;28;20532;-82
2023/09/08 00:12:01;;;;;;;0.70;0.70;;;18.80;99.90;;;;;;5097331;28;20497;-83
2023/09/08 00:14:27;;;;;;;0.57;0.57;;;18.70;99.90;;;;;;5097317;28;20089;-82
2023/09/08 00:16:56;;;;;;;0.30;0.30;;;18.70;99.90;;;;;;5097296;28;20032;-82
2023/09/08 00:19:22;;;;;;;0.30;0.30;;;18.70;99.90;;;;;;5097424;28;20044;-82
2023/09/08 00:21:49;;;;;;;0.40;0.40;;;18.60;99.90;;;;;;5097204;28;20043;-81
2023/09/08 00:24:15;;;;;;;0.30;0.30;;;18.60;99.90;;;;;;5097183;28;20075;-82
2023/09/08 00:26:41;;;;;;;0.20;0.20;;;18.60;99.90;;;;;;5097041;28;20081;-83
2023/09/08 00:29:07;;;;;;;0.53;0.53;;;18.60;99.90;;;;;;5097000;28;20387;-82
2023/09/08 00:31:33;;;;;;;0.30;0.30;;;18.50;99.90;;;;;;5097089;28;20039;-81
2023/09/08 00:33:59;;;;;;;0.70;0.60;;;18.50;99.90;;;;;;5096208;28;20531;-82
2023/09/08 00:36:24;;;;;;;0.93;0.40;;;18.50;99.90;;;;;;5097647;28;20462;-83
2023/09/08 00:38:50;;;;;;;0.47;0.47;;;18.40;99.90;;;;;;5095974;28;20047;-81
2023/09/08 00:41:16;;;;;;;0.40;0.40;;;18.40;99.90;;;;;;5097636;28;20047;-83
2023/09/08 00:43:41;;;;;;;1.13;0.70;;;18.40;99.90;;;;;;5097405;28;20597;-81
2023/09/08 00:46:08;;;;;;;0.63;0.57;;;18.30;99.90;;;;;;5096841;28;20169;-81
2023/09/08 00:48:34;;;;;;;0.73;0.73;;;18.30;99.90;;;;;;5096660;28;20075;-83
2023/09/08 00:51:00;;;;;;;;;;;18.30;99.90;;;;;;5097239;28;20476;-82
2023/09/08 00:53:26;;;;;;;0.40;0.40;;;18.30;99.90;;;;;;5096368;28;19963;-81
2023/09/08 00:55:52;;;;;;;0.30;0.30;;;18.30;99.90;;;;;;5097341;28;20071;-81
2023/09/08 00:58:18;;;;;;;0.43;0.43;;;18.20;99.90;;;;;;5095534;28;20148;-82
2023/09/08 01:00:44;;;;;;;0.40;0.40;;;18.20;99.90;;;;;;5096896;28;20287;-82
2023/09/08 01:03:12;;;;;;;0.30;0.30;;;18.10;99.90;;;;;;5096327;28;20127;-82
2023/09/08 01:05:38;;;;;;;0.40;0.40;;;18.10;99.90;;;;;;5096286;28;20145;-83
2023/09/08 01:08:05;;;;;;;0.40;0.40;;;18.00;99.90;;;;;;5096103;28;20106;-83
2023/09/08 01:10:31;;;;;;;0.40;0.40;;;18.00;99.90;;;;;;5096224;28;20103;-82
2023/09/08 01:12:57;;;;;;;0.53;0.53;;;18.00;99.90;;;;;;5096007;28;20459;-82
2023/09/08 01:15:23;;;;;;;0.40;0.40;;;17.90;99.90;;;;;;5096460;28;20124;-81
2023/09/08 01:17:49;;;;;;;1.20;1.10;;;17.90;99.90;;;;;;5096207;28;20071;-82
2023/09/08 01:20:27;;;;;;;0.40;0.40;;;17.80;99.90;;;;;;5095560;28;20402;-81
2023/09/08 01:23:28;;;;;;;0.65;0.52;;;17.80;99.90;;;;;;5096528;28;20105;-81
2023/09/08 01:26:12;;;;;;;0.73;0.52;;;17.80;99.90;;;;;;5096250;28;20044;-82
2023/09/08 01:28:40;;;;;;;0.38;0.38;;;17.80;99.90;;;;;;5094635;28;20090;-81
2023/09/08 01:31:07;;;;;;;0.40;0.40;;;17.70;99.90;;;;;;5095499;28;20093;-81
2023/09/08 01:33:33;;;;;;;0.45;0.45;;;17.70;99.90;;;;;;5096396;28;20040;-83
2023/09/08 01:35:59;;;;;;;0.63;0.50;;;17.70;99.90;;;;;;5095711;28;20079;-81
2023/09/08 01:38:25;;;;;;;0.87;0.53;;;17.70;99.90;;;;;;5095704;28;20086;-82
2023/09/08 01:40:51;;;;;;;0.40;0.40;;;17.70;99.90;;;;;;5095856;28;20089;-81
2023/09/08 01:43:16;;;;;;;0.40;0.40;;;17.70;99.90;;;;;;5094492;28;20039;-81
2023/09/08 01:45:42;;;;;;;0.50;0.50;;;17.50;99.90;;;;;;5095511;28;20486;-82
2023/09/08 01:48:08;;;;;;;0.50;0.50;;;17.60;99.90;;;;;;5095969;28;20043;-81
2023/09/08 01:50:33;;;;;;;0.50;0.40;;;17.50;99.90;;;;;;5095476;28;20036;-81
2023/09/08 01:52:59;;;;;;;0.50;0.50;;;17.50;99.90;;;;;;5095224;28;20370;-83
2023/09/08 01:55:24;;;;;;;0.50;0.50;;;17.50;99.90;;;;;;5095256;28;20043;-82
2023/09/08 01:57:50;;;;;;;0.30;0.30;;;17.50;99.90;;;;;;5095195;28;20035;-82
2023/09/08 02:00:16;;;;;;;0.30;0.30;;;17.40;99.90;;;;;;5095107;28;20044;-82
2023/09/08 02:02:42;;;;;;;0.30;0.30;;;17.40;99.90;;;;;;5093906;28;20131;-83
2023/09/08 02:05:08;;;;;;;0.50;0.50;;;17.40;99.90;;;;;;5095199;28;20170;-81
2023/09/08 02:07:34;;;;;;;5.50;0.70;;;17.40;99.90;;;;;;5094830;28;20425;-82
2023/09/08 02:10:00;;;;;;;0.40;0.40;;;17.30;99.90;;;;;;5095307;28;20174;-82
2023/09/08 02:12:25;;;;;;;0.37;0.37;;;17.30;99.90;;;;;;5095082;28;20040;-82
2023/09/08 02:14:51;;;;;;;0.30;0.30;;;17.30;99.90;;;;;;5093746;28;20055;-81
2023/09/08 02:17:17;;;;;;;0.40;0.40;;;17.20;99.90;;;;;;5095011;28;20044;-81
2023/09/08 02:19:43;;;;;;;0.50;0.50;;;17.20;99.90;;;;;;5095212;28;20032;-82
2023/09/08 02:22:09;;;;;;;0.80;0.70;;;17.20;99.90;;;;;;5095292;28;20379;-82
2023/09/08 02:24:34;;;;;;;0.40;0.40;;;17.20;99.90;;;;;;5094617;28;20046;-81
2023/09/08 02:27:00;;;;;;;0.40;0.40;;;17.20;99.90;;;;;;5094724;28;20071;-82
2023/09/08 02:29:25;;;;;;;0.40;0.40;;;17.10;99.90;;;;;;5094658;28;20043;-82
2023/09/08 02:31:51;;;;;;;0.50;0.50;;;17.10;99.90;;;;;;5093859;28;20047;-83
2023/09/08 02:34:17;;;;;;;0.70;0.70;;;17.10;99.90;;;;;;5094914;28;20429;-82
2023/09/08 02:36:43;;;;;;;0.50;0.40;;;17.10;99.90;;;;;;5094562;28;20051;-81
2023/09/08 02:39:08;;;;;;;0.30;0.30;;;17.10;99.90;;;;;;5094335;28;20036;-81
2023/09/08 02:41:34;;;;;;;0.40;0.40;;;17.10;99.90;;;;;;5094453;28;20127;-83
2023/09/08 02:44:00;;;;;;;0.43;0.40;;;17.10;99.90;;;;;;5093163;28;20122;-82
2023/09/08 02:46:25;;;;;;;0.40;0.40;;;17.00;99.90;;;;;;5093356;28;20036;-81
2023/09/08 02:48:52;;;;;;;0.40;0.40;;;17.10;99.90;;;;;;5094277;28;20197;-81
2023/09/08 02:51:18;;;;;;;0.40;0.40;;;16.90;99.90;;;;;;5094207;28;20043;-82
2023/09/08 02:53:44;;;;;;;0.53;0.53;;;16.90;99.90;;;;;;5093931;28;20035;-82
2023/09/08 02:56:09;;;;;;;0.30;0.30;;;16.90;99.90;;;;;;5094297;28;20035;-82
2023/09/08 02:58:35;;;;;;;0.60;0.60;;;16.90;99.90;;;;;;5093259;28;20052;-83
2023/09/08 03:01:15;;;;;;;0.30;0.30;;;16.90;99.90;;;;;;5094127;28;20105;-82
2023/09/08 03:03:41;;;;;;;0.40;0.40;;;16.80;99.90;;;;;;5094539;28;20380;-81
2023/09/08 03:06:08;;;;;;;;;;;17.00;99.90;;;;;;5094519;28;20047;-83
2023/09/08 03:08:33;;;;;;;0.55;0.55;;;16.80;99.90;;;;;;5109604;28;20036;-81
2023/09/08 03:10:59;;;;;;;0.40;0.40;;;16.80;99.90;;;;;;5094028;28;20456;-83
2023/09/08 03:13:26;;;;;;;0.50;0.50;;;16.90;99.90;;;;;;5093898;28;20058;-82
2023/09/08 03:15:52;;;;;;;0.63;0.63;;;16.70;99.90;;;;;;5093952;28;20463;-82
2023/09/08 03:18:17;;;;;;;1.23;0.88;;;16.70;99.90;;;;;;5094161;28;20407;-82
2023/09/08 03:20:43;;;;;;;0.40;0.40;;;16.60;99.90;;;;;;5094270;28;20127;-82
2023/09/08 03:23:09;;;;;;;0.50;0.50;;;16.50;99.90;;;;;;5127208;28;20044;-83
2023/09/08 03:25:34;;;;;;;0.50;0.50;;;16.50;99.90;;;;;;5094042;28;20421;-81
2023/09/08 03:28:00;;;;;;;0.50;0.50;;;16.50;99.90;;;;;;5093843;28;20040;-82
2023/09/08 03:30:25;;;;;;;1.07;0.70;;;16.40;99.90;;;;;;5093569;28;20047;-81
2023/09/08 03:32:51;;;;;;;0.40;0.40;;;16.40;99.90;;;;;;5094166;28;20132;-81
2023/09/08 03:35:17;;;;;;;0.53;0.50;;;16.30;99.90;;;;;;5092804;28;20047;-81
2023/09/08 03:37:42;;;;;;;0.30;0.30;;;16.40;99.90;;;;;;5093725;28;20047;-81
2023/09/08 03:40:08;;;;;;;0.50;0.50;;;16.40;99.90;;;;;;5093758;28;20036;-82
2023/09/08 03:42:37;;;;;;;0.40;0.40;;;16.40;99.90;;;;;;5093696;28;20036;-83
2023/09/08 03:45:03;;;;;;;0.70;0.70;;;16.50;99.90;;;;;;5097326;28;20049;-82
2023/09/08 03:47:29;;;;;;;0.40;0.40;;;16.40;99.90;;;;;;5097801;28;20044;-83
2023/09/08 03:49:54;;;;;;;0.37;0.37;;;16.40;99.90;;;;;;5098011;28;20089;-81
2023/09/08 03:52:20;;;;;;;0.63;0.60;;;16.50;99.90;;;;;;5097719;28;20044;-83
2023/09/08 03:54:46;;;;;;;0.50;0.40;;;16.50;99.90;;;;;;5097707;28;20039;-81
2023/09/08 03:57:11;;;;;;;0.73;0.57;;;16.40;99.90;;;;;;5097578;28;20048;-82
2023/09/08 03:59:37;;;;;;;2.00;0.80;;;16.30;99.90;;;;;;5097483;28;20375;-81
2023/09/08 04:02:03;;;;;;;1.00;0.87;;;16.30;99.90;;;;;;5097227;28;20058;-82
2023/09/08 04:04:28;;;;;;;0.63;0.53;;;16.30;99.90;;;;;;5097500;28;20115;-81
2023/09/08 04:06:54;;;;;;;0.40;0.40;;;16.30;99.90;;;;;;5097421;28;20122;-82
2023/09/08 04:09:20;;;;;;;0.53;0.53;;;16.30;99.90;;;;;;5097464;28;20128;-82
2023/09/08 04:11:45;;;;;;;0.83;0.80;;;16.20;99.90;;;;;;5097359;28;20374;-81
2023/09/08 04:14:11;;;;;;;0.73;0.73;;;16.20;99.90;;;;;;5097241;28;20569;-81
2023/09/08 04:16:37;;;;;;;0.37;0.37;;;16.20;99.90;;;;;;5096069;28;20093;-82
2023/09/08 04:19:02;;;;;;;0.33;0.33;;;16.20;99.90;;;;;;5097174;28;20366;-82
2023/09/08 04:21:28;;;;;;;0.87;0.50;;;16.20;99.90;;;;;;5097291;28;20071;-81
2023/09/08 04:23:54;;;;;;;0.50;0.50;;;16.10;99.90;;;;;;5097328;28;20089;-81
2023/09/08 04:26:19;;;;;;;0.40;0.40;;;16.20;99.90;;;;;;5097195;28;20347;-82
2023/09/08 04:28:45;;;;;;;1.13;0.80;;;16.10;99.90;;;;;;5096692;28;20065;-83
2023/09/08 04:31:10;;;;;;;0.50;0.50;;;16.10;99.90;;;;;;5097384;28;20038;-81
2023/09/08 04:33:36;;;;;;;0.40;0.40;;;16.10;99.90;;;;;;5097270;28;20129;-83
2023/09/08 04:36:02;;;;;;;0.37;0.37;;;16.10;99.90;;;;;;5097142;28;20093;-82
2023/09/08 04:38:27;;;;;;;0.60;0.60;;;16.00;99.90;;;;;;5096940;28;20040;-81
2023/09/08 04:40:53;;;;;;;0.50;0.50;;;16.00;99.90;;;;;;5095344;28;20524;-82
2023/09/08 04:43:18;;;;;;;0.30;0.30;;;16.00;99.90;;;;;;5096676;28;20089;-82
2023/09/08 04:45:45;;;;;;;0.50;0.50;;;16.00;99.90;;;;;;5097186;28;20094;-81
2023/09/08 04:48:10;;;;;;;0.85;0.57;;;16.10;99.90;;;;;;5096843;28;20040;-81
2023/09/08 04:50:36;;;;;;;0.80;0.70;;;15.90;99.90;;;;;;5096855;28;20421;-81
2023/09/08 04:53:02;;;;;;;0.40;0.40;;;15.90;99.90;;;;;;5096483;28;20036;-81
2023/09/08 04:55:28;;;;;;;0.57;0.57;;;15.90;99.90;;;;;;5095690;28;20040;-81
2023/09/08 04:57:53;;;;;;;0.60;0.60;;;15.90;99.90;;;;;;5096416;28;20101;-81
2023/09/08 05:00:19;;;;;;;0.50;0.50;;;15.80;99.90;;;;;;5096091;28;20036;-81
2023/09/08 05:02:45;;;;;;;0.40;0.40;;;15.90;99.90;;;;;;5129353;27;20047;-82
2023/09/08 05:05:10;;;;;;;0.40;0.40;;;15.90;99.90;;;;;;5096336;28;20442;-82
2023/09/08 05:07:36;;;;;;;0.40;0.40;;;15.90;99.90;;;;;;5095901;28;20127;-81
2023/09/08 05:10:02;;;;;;;0.50;0.50;;;15.90;99.90;;;;;;5096137;28;20032;-82
2023/09/08 05:12:27;;;;;;;0.40;0.40;;;15.80;99.90;;;;;;5096180;28;20047;-82
2023/09/08 05:14:56;;;;;;;0.80;0.80;;;16.20;99.90;;;;;;5096001;28;20039;-81
2023/09/08 05:17:23;;;;;;;0.30;0.30;;;15.80;99.90;;;;;;5096214;28;20086;-81
2023/09/08 05:19:49;;;;;;;0.30;0.30;;;15.80;99.90;;;;;;5096045;28;20093;-82
2023/09/08 05:22:14;;;;;;;0.30;0.30;;;16.00;99.90;;;;;;5096036;28;20079;-82
2023/09/08 05:24:40;;;;;;;0.50;0.50;;;15.80;99.90;;;;;;5095957;28;20043;-82
2023/09/08 05:27:06;;;;;;;0.47;0.47;;;15.80;99.90;;;;;;5095906;28;20054;-82
2023/09/08 05:29:31;;;;;;;0.40;0.40;;;15.80;99.90;;;;;;5111571;28;20040;-82
2023/09/08 05:31:57;;;;;;;0.50;0.50;;;15.80;99.90;;;;;;5095777;28;20113;-82
2023/09/08 05:34:22;;;;;;;0.40;0.40;;;15.80;99.90;;;;;;5094501;28;20040;-83
2023/09/08 05:36:48;;;;;;;0.60;0.60;;;15.90;99.90;;;;;;5095650;28;20032;-82
2023/09/08 05:39:15;;;;;;;0.50;0.50;;;15.90;99.90;;;;;;5095567;28;20044;-81
2023/09/08 05:41:40;;;;;;;;;;;15.90;99.90;;;;;;5095913;28;20051;-82
2023/09/08 05:44:06;;;;;;;0.60;0.60;;;15.90;99.90;;;;;;5095453;28;19916;-81
2023/09/08 05:46:32;;;;;;;0.47;0.47;;;15.90;99.90;;;;;;5095492;28;20036;-82
2023/09/08 05:48:57;;;;;;;0.57;0.57;;;15.90;99.90;;;;;;5095687;28;20047;-82
2023/09/08 05:51:23;;;;;;;0.57;0.57;;;16.00;99.90;;;;;;5094222;28;20040;-81
2023/09/08 05:53:49;;;;;;;0.57;0.57;;;16.00;99.90;;;;;;5095429;28;20040;-82
2023/09/08 05:56:14;;;;;;;0.30;0.30;;;16.00;99.90;;;;;;5094106;28;20055;-82
2023/09/08 05:58:40;;;;;;;0.60;0.60;;;16.10;99.90;;;;;;5095120;28;20032;-81
2023/09/08 06:01:07;;;;;;;0.83;0.70;;;16.10;99.90;;;;;;5095213;28;20086;-82
2023/09/08 06:03:32;;;;;;;;;;;16.20;99.90;;;;;;5095586;28;20044;-81
2023/09/08 06:05:58;;;;;;;0.43;0.43;;;16.20;99.90;;;;;;5095055;28;20405;-82
2023/09/08 06:08:24;;;;;;;0.40;0.40;;;16.30;99.90;;;;;;5093992;28;20080;-81
2023/09/08 06:10:50;;;;;;;0.63;0.63;;;16.30;99.90;;;;;;5095251;28;20048;-81
2023/09/08 06:13:15;;;;;;;0.40;0.40;;;16.40;99.90;;;;;;5094893;28;20109;-83
2023/09/08 06:15:41;;;;;;;0.97;0.97;;;16.50;99.90;;;;;;5094021;28;20036;-82
2023/09/08 06:18:06;;;;;;;0.87;0.83;;;16.70;99.90;;;;;;5094931;28;20131;-82
2023/09/08 06:20:32;;;;;;;0.50;0.50;;;16.60;99.90;;;;;;5093935;28;20036;-83
2023/09/08 06:23:01;;;;;;;0.80;0.80;;;16.70;99.90;;;;;;5094993;28;20032;-82
2023/09/08 06:25:28;;;;;;;0.40;0.40;;;16.80;99.90;;;;;;5127899;27;20139;-81
2023/09/08 06:27:54;;;;;;;0.95;0.75;;;16.90;99.90;;;;;;5094646;28;20042;-83
2023/09/08 06:30:19;;;;;;;0.47;0.47;;;16.90;99.90;;;;;;5094266;28;20050;-82
2023/09/08 06:32:45;;;;;;;0.77;0.73;;;17.00;99.90;;;;;;5128053;27;20040;-83
2023/09/08 06:35:11;;;;;;;0.63;0.53;;;17.10;99.90;;;;;;5094664;28;20181;-83
2023/09/08 06:37:38;;;;;;;0.50;0.50;;;17.10;99.90;;;;;;5094587;28;20071;-83
2023/09/08 06:40:05;;;;;;;1.85;1.25;;;17.40;99.90;;;;;;5094477;28;20459;-82
2023/09/08 06:42:30;;;;;;;;;;;17.50;99.90;;;;;;5094831;28;20063;-82
2023/09/08 06:44:56;;;;;;;0.82;0.82;;;17.60;99.90;;;;;;5094436;28;20343;-82
2023/09/08 06:47:22;;;;;;;0.60;0.60;;;17.70;99.90;;;;;;5094025;28;20151;-83
2023/09/08 06:49:47;;;;;;;0.40;0.40;;;17.90;99.90;;;;;;5094315;28;20111;-83
2023/09/08 06:52:13;;;;;;;0.83;0.83;;;18.00;99.90;;;;;;5094703;28;20044;-82
2023/09/08 06:54:38;;;;;;;1.00;0.57;;;18.20;99.90;;;;;;5094329;28;20573;-82
2023/09/08 06:57:04;;;;;;;0.67;0.50;;;18.30;99.90;;;;;;5094240;28;20079;-84
2023/09/08 06:59:30;;;;;;;0.70;0.70;;;18.50;99.90;;;;;;5094131;28;20554;-82
2023/09/08 07:01:55;;;;;;;0.47;0.47;;;18.60;99.90;;;;;;5094206;28;20375;-82
2023/09/08 07:04:21;;;;;;;0.53;0.53;;;18.70;99.90;;;;;;5093661;28;20520;-82
2023/09/08 07:06:47;;;;;;;0.50;0.50;;;18.90;99.90;;;;;;5094341;28;20425;-82
2023/09/08 07:09:13;;;;;;;0.50;0.50;;;18.90;99.90;;;;;;5093640;28;20467;-82
2023/09/08 07:11:38;;;;;;;0.98;0.88;;;19.10;99.90;;;;;;5093972;28;20080;-82
2023/09/08 07:14:04;;;;;;;1.07;0.87;;;19.20;99.90;;;;;;5093981;28;20043;-83
2023/09/08 07:16:30;;;;;;;0.80;0.60;;;19.30;99.90;;;;;;5093797;28;20463;-83
2023/09/08 07:18:55;;;;;;;0.70;0.67;;;19.40;99.90;;;;;;5092582;28;20047;-83
2023/09/08 07:21:21;;;;;;;0.80;0.70;;;19.50;99.90;;;;;;5094138;28;20036;-82
2023/09/08 07:23:47;;;;;;;0.50;0.50;;;19.60;99.90;;;;;;5092745;28;20040;-83
2023/09/08 07:26:12;;;;;;;0.53;0.40;;;19.70;99.90;;;;;;5093934;28;20044;-83
2023/09/08 07:28:39;;;;;;;0.50;0.50;;;19.90;99.90;;;;;;5092744;28;20043;-83
2023/09/08 07:31:06;;;;;;;0.75;0.75;;;20.00;99.90;;;;;;5093786;28;20054;-82
2023/09/08 07:33:32;;;;;;;0.60;0.60;;;20.00;99.90;;;;;;5093837;28;20040;-83
2023/09/08 07:35:57;;;;;;;0.60;0.60;;;20.10;99.90;;;;;;5093861;28;20101;-83
2023/09/08 07:38:23;;;;;;;1.43;0.67;;;20.30;99.90;;;;;;5093762;28;20472;-82
2023/09/08 07:40:48;;;;;;;0.50;0.50;;;20.40;99.90;;;;;;5093866;28;20127;-82
2023/09/08 07:43:14;;;;;;;0.90;0.70;;;20.50;99.90;;;;;;5093671;28;20127;-83
2023/09/08 07:45:40;;;;;;;1.60;0.80;;;20.60;99.90;;;;;;5094192;28;20044;-83
2023/09/08 07:48:06;;;;;;;0.60;0.50;;;20.70;99.90;;;;;;5093732;28;20416;-83
2023/09/08 07:50:32;;;;;;;0.65;0.60;;;20.80;99.90;;;;;;5093686;28;20046;-83
2023/09/08 07:52:58;;;;;;;1.17;0.53;;;20.90;99.90;;;;;;5093836;28;20036;-83
2023/09/08 07:55:27;;;;;;;1.50;0.57;;;21.00;99.90;;;;;;5093617;28;20040;-84
2023/09/08 07:57:53;;;;;;;0.52;0.52;;;21.20;99.90;;;;;;5093455;28;20048;-83
2023/09/08 08:00:19;;;;;;;0.50;0.50;;;21.30;99.90;;;;;;5126287;27;20036;-83
2023/09/08 08:02:49;;;;;;;0.57;0.50;;;21.40;99.90;;;;;;5093589;28;20417;-82
2023/09/08 08:05:15;;;;;;;0.70;0.70;;;21.40;99.90;;;;;;5093730;28;20043;-83
2023/09/08 08:07:42;;;;;;;1.08;0.43;;;21.60;99.90;;;;;;5093921;28;20383;-83
2023/09/08 08:10:09;;;;;;;0.73;0.40;;;21.70;99.90;;;;;;5093491;28;20044;-82
2023/09/08 08:12:36;;;;;;;1.75;0.93;;;21.80;99.90;;;;;;5093283;28;20041;-84
2023/09/08 08:15:01;;;;;;;0.68;0.65;;;21.90;99.90;;;;;;5093443;28;20048;-83
2023/09/08 08:17:30;;;;;;;1.00;0.80;;;22.00;99.90;;;;;;5093821;28;20039;-83
2023/09/08 08:19:58;;;;;;;0.82;0.82;;;22.10;99.90;;;;;;5093632;28;20044;-83
2023/09/08 08:22:24;;;;;;;0.50;0.50;;;22.20;99.90;;;;;;5093323;28;20044;-83
2023/09/08 08:24:50;;;;;;;1.95;0.93;;;22.30;99.90;;;;;;5093263;28;20036;-82
2023/09/08 08:27:16;;;;;;;1.27;0.83;;;22.50;99.90;;;;;;5093299;28;20051;-83
2023/09/08 08:29:41;;;;;;;0.37;0.37;;;22.60;99.90;;;;;;5093270;28;20098;-83
2023/09/08 08:32:07;;;;;;;0.63;0.63;;;22.70;99.90;;;;;;5096651;28;20090;-83
2023/09/08 08:34:32;;;;;;;0.70;0.70;;;22.80;99.90;;;;;;5096186;28;20436;-82
2023/09/08 08:36:58;;;;;;;0.40;0.40;;;22.90;99.90;;;;;;5096849;28;20039;-83
2023/09/08 08:39:23;;;;;;;1.40;0.87;;;23.10;99.90;;;;;;5095539;28;20052;-83
2023/09/08 08:41:49;;;;;;;0.53;0.53;;;23.10;99.90;;;;;;5095698;28;20131;-84
2023/09/08 08:44:20;;;;;;;0.50;0.50;;;23.20;99.90;;;;;;5096594;28;20345;-81
2023/09/08 08:46:47;;;;;;;0.35;0.35;;;23.30;99.90;;;;;;5096573;28;20039;-83
2023/09/08 08:49:16;;;;;;;0.50;0.50;;;23.40;99.90;;;;;;5096468;28;20417;-82
2023/09/08 08:51:44;;;;;;;0.32;0.32;;;23.50;99.90;;;;;;5096555;28;20116;-84
2023/09/08 08:54:15;;;;;;;0.68;0.68;;;23.60;99.90;;;;;;5095753;28;20156;-83
2023/09/08 08:56:42;;;;;;;1.08;0.85;;;23.70;99.90;;;;;;5096192;28;20036;-83
2023/09/08 08:59:10;;;;;;;0.45;0.45;;;23.80;99.90;;;;;;5096585;28;20040;-82
2023/09/08 09:01:36;;;;;;;0.45;0.45;;;23.90;99.90;;;;;;5096202;28;20537;-82
2023/09/08 09:04:05;;;;;;;0.38;0.38;;;24.00;99.90;;;;;;5096495;28;20051;-83
2023/09/08 09:06:31;;;;;;;0.57;0.50;;;24.10;99.90;;;;;;5096204;28;20044;-84
2023/09/08 09:08:58;;;;;;;0.43;0.43;;;24.10;99.90;;;;;;5096365;28;20151;-82
2023/09/08 09:11:23;;;;;;;0.35;0.35;;;24.20;99.90;;;;;;5096163;28;20083;-82
2023/09/08 09:13:49;;;;;;;0.30;0.30;;;24.30;99.90;;;;;;5096215;28;20128;-82
2023/09/08 09:16:15;;;;;;;0.43;0.40;;;24.50;99.90;;;;;;5096429;28;20147;-84
2023/09/08 09:18:58;;;;;;;0.40;0.40;;;24.60;99.90;;;;;;5096021;28;20032;-82
2023/09/08 09:21:25;;;;;;;0.28;0.28;;;24.70;99.90;;;;;;5095882;28;20047;-85
2023/09/08 09:23:51;;;;;;;0.40;0.40;;;24.80;99.90;;;;;;5096466;28;20418;-84
2023/09/08 09:26:25;;;;;;;0.30;0.30;;;24.90;99.90;;;;;;5094886;28;20036;-83
2023/09/08 09:28:52;;;;;;;0.30;0.30;;;25.10;99.90;;;;;;5128764;27;20040;-82
2023/09/08 09:31:18;;;;;;;0.50;0.50;;;25.10;99.90;;;;;;5129014;27;20066;-82
2023/09/08 09:33:45;;;;;;;0.65;0.50;;;25.20;99.90;;;;;;5095802;28;20029;-83
2023/09/08 09:36:20;;;;;;;0.47;0.40;;;25.30;99.90;;;;;;5095670;28;20122;-82
2023/09/08 09:38:47;;;;;;;1.00;0.60;;;25.40;99.90;;;;;;5095741;28;20054;-84
2023/09/08 09:41:12;;;;;;;;;;;25.40;99.90;;;;;;5096015;28;20044;-82
2023/09/08 09:43:38;;;;;;;0.32;0.32;;;25.50;99.90;;;;;;5095599;28;20019;-83
2023/09/08 09:46:08;;;;;;;0.47;0.47;;;25.60;99.90;;;;;;5095540;28;20032;-82
2023/09/08 09:48:35;;;;;;;1.30;0.50;;;25.60;99.90;;;;;;5095527;28;20040;-82
2023/09/08 09:51:20;;;;;;;1.85;0.85;;;25.70;99.90;;;;;;5095445;28;20039;-83
2023/09/08 09:53:47;;;;;;;0.38;0.38;;;25.80;99.90;;;;;;5095402;28;20043;-83
2023/09/08 09:56:15;;;;;;;0.40;0.40;;;25.90;99.90;;;;;;5095329;28;20040;-82
2023/09/08 09:58:41;;;;;;;0.30;0.30;;;26.00;99.90;;;;;;5095317;28;20119;-82
2023/09/08 10:01:08;;;;;;;0.35;0.35;;;26.10;99.90;;;;;;5095107;28;20535;-84
2023/09/08 10:03:33;;;;;;;0.30;0.30;;;26.20;99.90;;;;;;5094611;28;20378;-82
2023/09/08 10:06:00;;;;;;;0.87;0.50;;;26.20;99.90;;;;;;5095282;28;20047;-83
2023/09/08 10:08:25;;;;;;;0.45;0.45;;;26.30;99.90;;;;;;5095147;28;20052;-82
2023/09/08 10:10:51;;;;;;;0.40;0.40;;;26.30;99.90;;;;;;5095091;28;20485;-82
2023/09/08 10:13:46;;;;;;;0.30;0.30;;;26.40;99.90;;;;;;5095059;28;20069;-82
2023/09/08 10:16:15;;;;;;;1.25;0.43;;;26.50;99.90;;;;;;5094190;28;20278;-82
2023/09/08 10:18:44;;;;;;;0.47;0.45;;;26.60;99.90;;;;;;5095098;28;20132;-82
2023/09/08 10:21:11;;;;;;;0.50;0.50;;;26.60;99.90;;;;;;5128351;27;20062;-83
2023/09/08 10:23:44;;;;;;;0.47;0.47;;;26.60;99.90;;;;;;5094082;28;20044;-83
2023/09/08 10:26:11;;;;;;;0.32;0.32;;;26.60;99.90;;;;;;5094759;28;20086;-82
2023/09/08 10:28:38;;;;;;;0.25;0.25;;;26.70;99.90;;;;;;5093514;28;20083;-82
2023/09/08 10:31:05;;;;;;;0.35;0.32;;;26.70;99.90;;;;;;5095013;28;20382;-82
2023/09/08 10:33:32;;;;;;;0.20;0.20;;;26.80;99.90;;;;;;5094644;28;20047;-83
2023/09/08 10:36:02;;;;;;;0.22;0.22;;;26.90;99.90;;;;;;5094769;28;20078;-82
2023/09/08 10:38:31;;;;;;;0.25;0.25;;;27.00;99.90;;;;;;5094570;28;20097;-82
2023/09/08 10:41:17;;;;;;;0.55;0.40;;;27.10;99.90;;;;;;5094521;28;20050;-82
2023/09/08 10:43:56;;;;;;;0.20;0.20;;;27.20;99.90;;;;;;5094004;28;20086;-82
2023/09/08 10:46:25;;;;;;;0.30;0.30;;;27.30;99.90;;;;;;5094350;28;20051;-82
2023/09/08 10:48:53;;;;;;;0.30;0.30;;;27.30;99.90;;;;;;5094380;28;20119;-82
2023/09/08 10:51:21;;;;;;;0.22;0.22;;;27.40;99.90;;;;;;5094337;28;20467;-83
2023/09/08 10:53:47;;;;;;;0.40;0.40;;;27.50;99.90;;;;;;5094294;28;20389;-82
2023/09/08 10:56:13;;;;;;;0.40;0.40;;;27.50;99.90;;;;;;5094619;28;20044;-83
2023/09/08 10:58:42;;;;;;;0.20;0.20;;;27.60;99.90;;;;;;5094253;28;20036;-83
2023/09/08 11:01:12;;;;;;;0.50;0.40;;;27.60;99.90;;;;;;5093853;28;20482;-82
2023/09/08 11:03:37;;;;;;;0.52;0.52;;;27.70;99.90;;;;;;5094203;28;20043;-82
2023/09/08 11:06:06;;;;;;;0.30;0.30;;;27.80;99.90;;;;;;5093738;28;20040;-83
2023/09/08 11:08:38;;;;;;;0.70;0.50;;;27.80;99.90;;;;;;5092694;28;20044;-85
2023/09/08 11:11:04;;;;;;;0.30;0.30;;;28.00;99.90;;;;;;5094334;28;20113;-83
2023/09/08 11:13:30;;;;;;;0.35;0.35;;;28.10;99.90;;;;;;5094048;28;20491;-82
2023/09/08 11:15:56;;;;;;;0.53;0.53;;;28.10;99.90;;;;;;5094036;28;20371;-84
2023/09/08 11:18:28;;;;;;;0.20;0.20;;;28.10;99.90;;;;;;5093700;28;20278;-82
2023/09/08 11:20:54;;;;;;;0.50;0.40;;;28.20;99.90;;;;;;5093977;28;20145;-84
2023/09/08 11:23:20;;;;;;;;;;;28.20;99.90;;;;;;5094360;28;20040;-83
2023/09/08 11:25:46;;;;;;;0.20;0.20;;;28.30;99.90;;;;;;5093919;28;19960;-82
2023/09/08 11:28:13;;;;;;;0.20;0.20;;;28.30;99.90;;;;;;5093879;28;20040;-83
2023/09/08 11:30:40;;;;;;;0.30;0.30;;;28.40;99.90;;;;;;5093786;28;20040;-82
2023/09/08 11:33:17;;;;;;;0.25;0.25;;;28.50;99.90;;;;;;5093767;28;20043;-83
2023/09/08 11:35:45;;;;;;;0.20;0.20;;;28.50;99.90;;;;;;5094323;28;20502;-83
2023/09/08 11:38:11;;;;;;;1.10;0.70;;;28.60;99.90;;;;;;5093784;28;20051;-83
2023/09/08 11:40:37;;;;;;;0.20;0.20;;;28.60;99.90;;;;;;5093602;28;20486;-82
2023/09/08 11:43:05;;;;;;;1.52;0.85;;;28.70;99.90;;;;;;5093749;28;20040;-84
2023/09/08 11:45:33;;;;;;;0.50;0.43;;;28.70;99.90;;;;;;5093842;28;20040;-83
2023/09/08 11:47:59;;;;;;;1.35;0.93;;;28.70;99.90;;;;;;5093614;28;20036;-83
2023/09/08 11:50:25;;;;;;;0.73;0.32;;;28.70;99.90;;;;;;5093601;28;20036;-83
2023/09/08 11:52:52;;;;;;;0.22;0.22;;;28.70;99.90;;;;;;5092732;28;20471;-82
2023/09/08 11:55:19;;;;;;;0.30;0.30;;;28.80;99.90;;;;;;5092442;28;20081;-82
2023/09/08 11:57:57;;;;;;;0.47;0.47;;;28.80;99.90;;;;;;5092725;28;20093;-83
2023/09/08 12:00:25;;;;;;;0.32;0.30;;;28.90;99.90;;;;;;5093474;28;20044;-82
2023/09/08 12:02:51;;;;;;;0.50;0.50;;;29.00;99.90;;;;;;5093406;28;20439;-83
2023/09/08 12:05:27;;;;;;;0.30;0.30;;;29.00;99.90;;;;;;5096055;28;20082;-82
2023/09/08 12:07:55;;;;;;;0.40;0.40;;;29.10;99.90;;;;;;5097175;28;20044;-84
2023/09/08 12:10:21;;;;;;;0.40;0.40;;;29.10;99.90;;;;;;5097330;28;20058;-81
2023/09/08 12:12:54;;;;;;;0.85;0.52;;;29.10;99.90;;;;;;5096841;28;20085;-82
2023/09/08 12:15:40;;;;;;;0.40;0.40;;;29.10;99.90;;;;;;5096692;28;20047;-82
2023/09/08 12:18:09;;;;;;;0.30;0.30;;;29.10;99.90;;;;;;5097185;28;20058;-83
2023/09/08 12:20:36;;;;;;;0.40;0.40;;;29.20;99.90;;;;;;5097024;28;20101;-82
2023/09/08 12:23:04;;;;;;;0.20;0.20;;;29.30;99.90;;;;;;5097112;28;20378;-82
2023/09/08 12:25:34;;;;;;;0.30;0.30;;;29.30;99.90;;;;;;5097285;28;20036;-84
2023/09/08 12:28:00;;;;;;;0.30;0.30;;;29.40;99.90;;;;;;5097021;28;20046;-82
2023/09/08 12:30:35;;;;;;;;;;;29.40;99.90;;;;;;5097313;28;20082;-82
2023/09/08 12:33:02;;;;;;;0.55;0.45;;;29.50;99.90;;;;;;5096884;28;19915;-82
2023/09/08 12:35:29;;;;;;;1.13;0.50;;;29.60;99.90;;;;;;5096782;28;20044;-83
2023/09/08 12:38:05;;;;;;;0.25;0.25;;;29.60;99.90;;;;;;5096992;28;20114;-82
2023/09/08 12:40:34;;;;;;;0.30;0.30;;;29.60;99.90;;;;;;5096820;28;20114;-82
2023/09/08 12:43:00;;;;;;;0.40;0.40;;;29.60;99.90;;;;;;5095781;28;20314;-82
2023/09/08 12:45:27;;;;;;;0.43;0.43;;;29.60;99.90;;;;;;5096875;28;20498;-82
2023/09/08 12:47:54;;;;;;;0.22;0.22;;;29.60;99.90;;;;;;5129950;27;20285;-83